createdAt,value
2018-03-28T00:01:25.065Z,8.48
2018-03-28T00:03:52.573Z,8.48
2018-03-28T00:06:21.618Z,8.45
2018-03-28T00:08:51.272Z,8.42
2018-03-28T00:11:20.505Z,8.41
2018-03-28T00:13:49.982Z,8.37
2018-03-28T00:16:17.692Z,8.37
2018-03-28T00:18:45.196Z,8.37
2018-03-28T00:21:12.668Z,8.32
2018-03-28T00:23:41.748Z,8.29
2018-03-28T00:26:11.405Z,8.30
2018-03-28T00:28:43.319Z,8.29
2018-03-28T00:31:12.757Z,8.24
2018-03-28T00:33:40.424Z,8.20
2018-03-28T00:36:07.939Z,8.20
2018-03-28T00:38:35.416Z,8.19
2018-03-28T00:41:04.593Z,8.14
2018-03-28T00:43:34.255Z,8.15
2018-03-28T00:46:04.739Z,8.13
2018-03-28T00:48:33.917Z,8.13
2018-03-28T00:54:02.923Z,8.12
2018-03-28T00:56:31.420Z,8.08
2018-03-28T00:59:00.329Z,8.08
2018-03-28T01:01:29.406Z,8.06
2018-03-28T01:04:00.350Z,8.05
2018-03-28T01:06:29.662Z,8.04
2018-03-28T01:08:57.263Z,8.02
2018-03-28T01:11:24.760Z,8.00
2018-03-28T01:13:52.236Z,7.97
2018-03-28T01:16:21.421Z,7.95
2018-03-28T01:18:53.055Z,7.92
2018-03-28T01:21:22.236Z,7.88
2018-03-28T01:23:52.397Z,7.87
2018-03-28T01:26:19.987Z,7.86
2018-03-28T01:28:47.461Z,7.86
2018-03-28T01:31:14.956Z,7.86
2018-03-28T01:33:43.950Z,7.86
2018-03-28T01:36:13.717Z,7.85
2018-03-28T01:38:43.333Z,7.84
2018-03-28T01:41:15.325Z,7.84
2018-03-28T01:43:42.977Z,7.82
2018-03-28T01:46:10.491Z,7.80
2018-03-28T01:48:37.960Z,7.80
2018-03-28T01:51:06.166Z,7.83
2018-03-28T01:53:37.118Z,7.84
2018-03-28T01:56:09.132Z,7.86
2018-03-28T01:58:39.318Z,7.85
2018-03-28T02:01:07.015Z,7.86
2018-03-28T02:03:34.483Z,7.87
2018-03-28T02:06:01.995Z,7.86
2018-03-28T02:08:32.247Z,7.87
2018-03-28T02:11:03.366Z,7.86
2018-03-28T02:13:32.894Z,7.86
2018-03-28T02:16:03.326Z,7.87
2018-03-28T02:18:30.943Z,7.89
2018-03-28T02:20:58.457Z,7.90
2018-03-28T02:23:25.941Z,7.90
2018-03-28T02:25:55.779Z,7.90
2018-03-28T02:28:25.608Z,7.89
2018-03-28T02:30:55.352Z,7.89
2018-03-28T02:33:24.969Z,7.90
2018-03-28T02:35:52.734Z,7.89
2018-03-28T02:38:20.213Z,7.88
2018-03-28T02:40:47.707Z,7.87
2018-03-28T02:43:17.129Z,7.87
2018-03-28T02:45:47.352Z,7.87
2018-03-28T02:48:16.961Z,7.86
2018-03-28T02:50:46.179Z,7.86
2018-03-28T02:53:14.788Z,7.83
2018-03-28T02:55:42.277Z,7.80
2018-03-28T02:58:09.871Z,7.78
2018-03-28T03:00:39.394Z,7.79
2018-03-28T03:03:08.719Z,7.78
2018-03-28T03:05:39.466Z,7.77
2018-03-28T03:08:08.580Z,7.77
2018-03-28T03:10:36.183Z,7.74
2018-03-28T03:13:03.676Z,7.72
2018-03-28T03:15:31.180Z,7.73
2018-03-28T03:18:00.798Z,7.72
2018-03-28T03:20:31.378Z,7.70
2018-03-28T03:23:01.129Z,7.69
2018-03-28T03:25:32.163Z,7.66
2018-03-28T03:27:59.797Z,7.64
2018-03-28T03:30:27.309Z,7.63
2018-03-28T03:32:54.779Z,7.63
2018-03-28T03:35:24.458Z,7.65
2018-03-28T03:37:54.234Z,7.65
2018-03-28T03:40:25.019Z,7.63
2018-03-28T03:42:56.827Z,7.62
2018-03-28T03:45:24.511Z,7.63
2018-03-28T03:47:51.988Z,7.61
2018-03-28T03:50:19.472Z,7.61
2018-03-28T03:52:48.823Z,7.62
2018-03-28T03:55:18.284Z,7.61
2018-03-28T03:57:48.410Z,7.61
2018-03-28T04:00:17.453Z,7.62
2018-03-28T04:02:45.020Z,7.62
2018-03-28T04:05:12.511Z,7.62
2018-03-28T04:07:40.007Z,7.61
2018-03-28T04:10:08.534Z,7.60
2018-03-28T04:12:38.095Z,7.60
2018-03-28T04:15:08.157Z,7.60
2018-03-28T04:17:37.937Z,7.61
2018-03-28T04:20:05.535Z,7.61
2018-03-28T04:22:33.012Z,7.60
2018-03-28T04:25:00.514Z,7.60
2018-03-28T04:27:28.988Z,7.59
2018-03-28T04:29:59.431Z,7.60
2018-03-28T04:32:29.087Z,7.58
2018-03-28T04:34:59.386Z,7.58
2018-03-28T04:37:27.131Z,7.57
2018-03-28T04:39:54.619Z,7.57
2018-03-28T04:42:22.111Z,7.56
2018-03-28T04:44:49.747Z,7.55
2018-03-28T04:47:21.331Z,7.54
2018-03-28T04:49:52.168Z,7.55
2018-03-28T04:52:24.882Z,7.57
2018-03-28T04:54:52.604Z,7.58
2018-03-28T04:57:20.099Z,7.58
2018-03-28T04:59:47.587Z,7.56
2018-03-28T05:02:15.320Z,7.55
2018-03-28T05:04:50.098Z,7.53
2018-03-28T05:07:22.391Z,7.50
2018-03-28T05:09:57.505Z,7.50
2018-03-28T05:12:25.192Z,7.50
2018-03-28T05:14:52.684Z,7.51
2018-03-28T05:17:20.170Z,7.53
2018-03-28T05:19:47.663Z,7.52
2018-03-28T05:22:17.615Z,7.53
2018-03-28T05:24:48.866Z,7.51
2018-03-28T05:27:20.606Z,7.50
2018-03-28T05:29:51.924Z,7.50
2018-03-28T05:32:19.579Z,7.50
2018-03-28T05:34:47.072Z,7.50
2018-03-28T05:37:14.536Z,7.49
2018-03-28T05:39:44.224Z,7.49
2018-03-28T05:42:16.096Z,7.48
2018-03-28T05:44:46.126Z,7.47
2018-03-28T05:47:17.259Z,7.45
2018-03-28T05:49:44.937Z,7.44
2018-03-28T05:52:12.393Z,7.42
2018-03-28T05:54:39.862Z,7.40
2018-03-28T05:57:13.055Z,7.37
2018-03-28T05:59:45.225Z,7.36
2018-03-28T06:02:17.003Z,7.34
2018-03-28T06:04:49.613Z,7.33
2018-03-28T06:07:17.401Z,7.31
2018-03-28T06:09:44.887Z,7.30
2018-03-28T06:12:12.392Z,7.25
2018-03-28T06:14:43.441Z,7.23
2018-03-28T06:23:16.464Z,7.15
2018-03-28T06:25:43.969Z,7.12
2018-03-28T06:28:11.476Z,7.09
2018-03-28T06:30:38.965Z,7.06
2018-03-28T06:33:12.175Z,7.02
2018-03-28T07:32:19.441Z,6.14
2018-03-28T07:34:46.966Z,6.13
2018-03-28T07:37:14.635Z,6.13
2018-03-28T07:39:42.331Z,6.10
2018-03-28T07:45:21.409Z,6.05
2018-03-28T07:50:51.864Z,5.97
2018-03-28T07:53:19.436Z,5.95
2018-03-28T07:55:46.947Z,5.95
2018-03-28T07:58:14.539Z,5.94
2018-03-28T08:00:42.145Z,5.95
2018-03-28T08:03:10.655Z,5.97
2018-03-28T08:08:41.003Z,6.02
2018-03-28T08:11:08.551Z,6.05
2018-03-28T08:13:36.654Z,6.08
2018-03-28T08:16:04.401Z,6.10
2018-03-28T08:18:32.392Z,6.13
2018-03-28T08:21:00.389Z,6.17
2018-03-28T08:23:28.350Z,6.21
2018-03-28T08:25:55.895Z,6.27
2018-03-28T08:28:23.413Z,6.32
2018-03-28T08:30:50.984Z,6.37
2018-03-28T08:33:18.569Z,6.42
2018-03-28T08:35:46.126Z,6.48
2018-03-28T08:38:13.689Z,6.54
2018-03-28T08:40:41.237Z,6.66
2018-03-28T08:43:08.782Z,6.77
2018-03-28T08:45:36.293Z,6.85
2018-03-28T08:48:04.228Z,6.89
2018-03-28T08:50:32.697Z,6.92
2018-03-28T08:53:00.380Z,6.95
2018-03-28T08:55:28.473Z,7.02
2018-03-28T08:57:56.650Z,7.10
2018-03-28T09:00:24.152Z,7.15
2018-03-28T09:02:51.680Z,7.21
2018-03-28T09:05:19.213Z,7.25
2018-03-28T09:07:46.822Z,7.28
2018-03-28T09:10:14.382Z,7.32
2018-03-28T09:12:41.997Z,7.36
2018-03-28T09:15:10.604Z,7.42
2018-03-28T09:17:38.164Z,7.48
2018-03-28T09:20:05.693Z,7.55
2018-03-28T09:22:33.266Z,7.59
2018-03-28T09:25:01.032Z,7.59
2018-03-28T09:27:28.629Z,7.56
2018-03-28T09:29:56.450Z,7.52
2018-03-28T09:32:24.059Z,7.50
2018-03-28T09:34:51.605Z,7.50
2018-03-28T09:37:19.120Z,7.57
2018-03-28T09:39:46.641Z,7.67
2018-03-28T09:42:14.205Z,7.72
2018-03-28T09:44:41.736Z,7.77
2018-03-28T09:47:09.354Z,7.85
2018-03-28T09:49:36.853Z,7.90
2018-03-28T09:52:04.377Z,7.91
2018-03-28T09:54:31.920Z,7.91
2018-03-28T09:56:59.483Z,7.88
2018-03-28T09:59:27.062Z,7.88
2018-03-28T10:01:59.594Z,7.94
2018-03-28T10:04:27.218Z,7.96
2018-03-28T10:06:54.751Z,7.98
2018-03-28T10:09:22.298Z,7.95
2018-03-28T10:11:49.798Z,7.91
2018-03-28T10:14:17.410Z,7.88
2018-03-28T10:16:45.102Z,7.93
2018-03-28T10:19:12.785Z,7.96
2018-03-28T10:21:40.399Z,7.94
2018-03-28T10:24:07.926Z,7.94
2018-03-28T10:26:35.485Z,7.94
2018-03-28T10:29:03.036Z,7.97
2018-03-28T10:31:30.576Z,8.01
2018-03-28T10:33:58.141Z,8.01
2018-03-28T10:36:25.686Z,8.00
2018-03-28T10:38:53.285Z,7.98
2018-03-28T10:41:20.790Z,7.99
2018-03-28T10:43:48.292Z,8.05
2018-03-28T10:46:15.840Z,8.14
2018-03-28T10:48:43.381Z,8.21
2018-03-28T10:51:10.973Z,8.31
2018-03-28T10:53:38.521Z,8.38
2018-03-28T10:56:06.105Z,8.37
2018-03-28T10:58:33.633Z,8.34
2018-03-28T11:01:01.161Z,8.35
2018-03-28T11:03:28.667Z,8.45
2018-03-28T11:05:56.287Z,8.56
2018-03-28T11:08:23.918Z,8.65
2018-03-28T11:10:52.071Z,8.71
2018-03-28T11:13:20.446Z,8.79
2018-03-28T11:15:47.986Z,8.77
2018-03-28T11:18:15.502Z,8.77
2018-03-28T11:20:43.004Z,8.73
2018-03-28T11:23:10.584Z,8.67
2018-03-28T11:25:38.177Z,8.55
2018-03-28T11:28:05.719Z,8.44
2018-03-28T11:30:33.309Z,8.33
2018-03-28T11:33:00.837Z,8.27
2018-03-28T11:35:28.340Z,8.31
2018-03-28T11:37:55.950Z,8.31
2018-03-28T11:40:23.457Z,8.27
2018-03-28T11:42:51.122Z,8.24
2018-03-28T11:45:18.684Z,8.18
2018-03-28T11:47:46.245Z,8.14
2018-03-28T11:50:13.780Z,8.23
2018-03-28T11:52:41.285Z,8.39
2018-03-28T11:55:08.802Z,8.52
2018-03-28T11:57:36.352Z,8.68
2018-03-28T12:00:04.490Z,8.81
2018-03-28T12:02:32.897Z,8.91
2018-03-28T12:05:00.635Z,8.96
2018-03-28T12:07:28.528Z,8.98
2018-03-28T12:09:56.045Z,9.05
2018-03-28T12:12:23.568Z,8.94
2018-03-28T12:14:51.107Z,8.84
2018-03-28T12:17:18.667Z,8.89
2018-03-28T12:19:46.237Z,9.05
2018-03-28T12:22:13.898Z,9.06
2018-03-28T12:24:42.163Z,9.10
2018-03-28T12:27:09.688Z,9.15
2018-03-28T12:29:37.222Z,9.32
2018-03-28T12:32:04.743Z,9.33
2018-03-28T12:34:33.158Z,9.23
2018-03-28T12:37:01.109Z,9.16
2018-03-28T12:39:28.789Z,9.07
2018-03-28T12:41:57.499Z,9.04
2018-03-28T12:44:25.024Z,9.22
2018-03-28T12:46:52.525Z,9.31
2018-03-28T12:49:20.102Z,9.28
2018-03-28T12:51:49.041Z,9.38
2018-03-28T12:54:17.793Z,9.56
2018-03-28T12:56:46.429Z,9.75
2018-03-28T12:59:14.833Z,9.83
2018-03-28T13:01:42.386Z,9.89
2018-03-28T13:04:09.917Z,10.00
2018-03-28T13:06:37.510Z,10.12
2018-03-28T13:09:05.181Z,10.23
2018-03-28T13:11:33.589Z,10.31
2018-03-28T13:14:02.551Z,10.39
2018-03-28T13:16:30.073Z,10.55
2018-03-28T13:18:57.572Z,10.78
2018-03-28T13:21:25.100Z,10.89
2018-03-28T13:23:52.641Z,10.82
2018-03-28T13:26:22.844Z,10.63
2018-03-28T13:28:50.565Z,10.55
2018-03-28T13:31:18.133Z,10.76
2018-03-28T13:33:45.638Z,10.86
2018-03-28T13:36:13.173Z,10.95
2018-03-28T13:38:40.685Z,11.00
2018-03-28T13:41:08.200Z,10.76
2018-03-28T13:43:35.797Z,10.59
2018-03-28T13:46:03.387Z,10.39
2018-03-28T13:48:30.944Z,10.15
2018-03-28T13:50:58.452Z,9.94
2018-03-28T13:53:25.986Z,9.75
2018-03-28T13:55:53.509Z,9.75
2018-03-28T13:58:21.730Z,9.80
2018-03-28T14:00:49.333Z,9.74
2018-03-28T14:03:16.968Z,9.77
2018-03-28T14:05:44.558Z,9.81
2018-03-28T14:08:12.106Z,9.86
2018-03-28T14:10:39.620Z,9.99
2018-03-28T14:13:07.137Z,10.28
2018-03-28T14:15:34.691Z,10.51
2018-03-28T14:18:02.260Z,10.59
2018-03-28T14:20:29.876Z,10.49
2018-03-28T14:22:57.432Z,10.58
2018-03-28T14:25:24.986Z,10.76
2018-03-28T14:27:52.542Z,10.89
2018-03-28T14:30:20.065Z,11.01
2018-03-28T14:32:47.595Z,11.03
2018-03-28T14:35:15.223Z,11.18
2018-03-28T14:37:42.792Z,11.24
2018-03-28T14:40:10.397Z,11.18
2018-03-28T14:42:37.917Z,11.03
2018-03-28T14:45:05.431Z,11.17
2018-03-28T14:47:32.979Z,11.33
2018-03-28T14:50:00.519Z,11.52
2018-03-28T14:52:28.302Z,11.72
2018-03-28T14:54:55.926Z,11.75
2018-03-28T14:57:23.476Z,11.87
2018-03-28T14:59:51.041Z,11.79
2018-03-28T15:02:18.560Z,11.54
2018-03-28T15:04:46.073Z,11.43
2018-03-28T15:07:13.613Z,11.53
2018-03-28T15:09:41.229Z,11.33
2018-03-28T15:12:08.789Z,11.00
2018-03-28T15:14:36.429Z,10.78
2018-03-28T15:17:03.926Z,10.87
2018-03-28T15:19:31.457Z,11.16
2018-03-28T15:21:58.997Z,11.30
2018-03-28T15:24:26.567Z,11.31
2018-03-28T15:26:54.153Z,11.30
2018-03-28T15:29:21.722Z,11.14
2018-03-28T15:31:50.007Z,11.09
2018-03-28T15:34:17.502Z,11.36
2018-03-28T15:36:45.017Z,11.72
2018-03-28T15:39:12.544Z,12.03
2018-03-28T15:41:40.094Z,12.10
2018-03-28T15:44:12.028Z,12.06
2018-03-28T15:46:41.397Z,12.07
2018-03-28T15:49:09.583Z,11.92
2018-03-28T15:51:37.113Z,11.81
2018-03-28T15:54:04.621Z,12.01
2018-03-28T15:56:32.139Z,12.01
2018-03-28T15:58:59.698Z,11.91
2018-03-28T16:01:28.194Z,11.83
2018-03-28T16:03:56.657Z,11.80
2018-03-28T16:06:24.603Z,11.76
2018-03-28T16:08:52.751Z,11.69
2018-03-28T16:11:20.304Z,11.47
2018-03-28T16:13:47.828Z,11.21
2018-03-28T16:16:15.397Z,11.04
2018-03-28T16:18:42.979Z,10.90
2018-03-28T16:21:10.734Z,10.79
2018-03-28T16:23:38.390Z,10.67
2018-03-28T16:26:05.924Z,10.62
2018-03-28T16:28:33.420Z,10.65
2018-03-28T16:31:00.942Z,10.70
2018-03-28T16:33:28.493Z,10.81
2018-03-28T16:35:56.729Z,10.97
2018-03-28T16:38:24.886Z,11.21
2018-03-28T16:40:53.355Z,11.55
2018-03-28T16:43:20.913Z,11.97
2018-03-28T16:45:48.409Z,12.06
2018-03-28T16:48:15.968Z,12.01
2018-03-28T16:50:43.545Z,12.24
2018-03-28T16:53:11.128Z,12.46
2018-03-28T16:55:38.728Z,12.58
2018-03-28T16:58:06.370Z,12.54
2018-03-28T17:00:33.915Z,12.45
2018-03-28T17:03:01.413Z,12.36
2018-03-28T17:05:28.937Z,12.24
2018-03-28T17:07:58.408Z,12.29
2018-03-28T17:10:26.017Z,12.09
2018-03-28T17:12:53.585Z,11.81
2018-03-28T17:15:21.309Z,11.64
2018-03-28T17:17:48.834Z,11.51
2018-03-28T17:20:16.388Z,11.35
2018-03-28T17:22:43.904Z,11.42
2018-03-28T17:25:11.519Z,11.47
2018-03-28T17:27:39.133Z,11.34
2018-03-28T17:30:06.762Z,11.19
2018-03-28T17:32:34.313Z,11.08
2018-03-28T17:35:01.837Z,10.95
2018-03-28T17:37:30.253Z,10.79
2018-03-28T17:39:57.828Z,10.71
2018-03-28T17:42:25.530Z,10.67
2018-03-28T17:44:53.520Z,10.60
2018-03-28T17:47:21.390Z,10.57
2018-03-28T17:49:49.694Z,10.47
2018-03-28T17:52:17.247Z,10.41
2018-03-28T17:54:44.762Z,10.36
2018-03-28T17:57:12.308Z,10.19
2018-03-28T17:59:39.901Z,10.06
2018-03-28T18:02:07.994Z,9.94
2018-03-28T18:04:39.250Z,9.85
2018-03-28T18:07:06.868Z,9.73
2018-03-28T18:09:34.485Z,9.63
2018-03-28T18:12:01.986Z,9.52
2018-03-28T18:14:29.536Z,9.44
2018-03-28T18:16:57.161Z,9.32
2018-03-28T18:19:25.537Z,9.22
2018-03-28T18:21:54.195Z,9.11
2018-03-28T18:24:21.889Z,9.02
2018-03-28T18:26:49.416Z,8.93
2018-03-28T18:29:16.958Z,8.84
2018-03-28T18:31:45.216Z,8.72
2018-03-28T18:34:13.690Z,8.62
2018-03-28T18:36:42.524Z,8.52
2018-03-28T18:39:10.102Z,8.46
2018-03-28T18:44:12.649Z,8.33
2018-03-28T18:46:40.161Z,8.26
2018-03-28T18:49:07.681Z,8.22
2018-03-28T18:51:36.979Z,8.19
2018-03-28T18:54:07.367Z,8.16
2018-03-28T18:56:40.895Z,8.13
2018-03-28T18:59:12.526Z,8.07
2018-03-28T19:01:40.912Z,8.04
2018-03-28T19:04:08.404Z,8.00
2018-03-28T19:06:35.977Z,7.98
2018-03-28T19:09:05.601Z,7.97
2018-03-28T19:11:35.200Z,7.95
2018-03-28T19:16:38.408Z,7.94
2018-03-28T19:19:05.917Z,7.88
2018-03-28T19:21:33.445Z,7.85
2018-03-28T19:24:00.984Z,7.87
2018-03-28T19:26:33.620Z,7.87
2018-03-28T19:29:02.136Z,7.85
2018-03-28T19:31:36.597Z,7.85
2018-03-28T19:34:04.117Z,7.84
2018-03-28T19:36:31.632Z,7.83
2018-03-28T19:38:59.197Z,7.81
2018-03-28T19:41:26.752Z,7.80
2018-03-28T19:43:54.333Z,7.79
2018-03-28T19:46:22.510Z,7.79
2018-03-28T19:48:50.053Z,7.79
2018-03-28T19:51:17.580Z,7.78
2018-03-28T19:53:45.155Z,7.77
2018-03-28T19:56:12.665Z,7.75
2018-03-28T19:58:40.221Z,7.74
2018-03-28T20:01:08.788Z,7.72
2018-03-28T20:03:36.849Z,7.70
2018-03-28T20:06:05.397Z,7.70
2018-03-28T20:08:32.910Z,7.65
2018-03-28T20:11:00.458Z,7.65
2018-03-28T20:13:27.981Z,7.66
2018-03-28T20:15:55.545Z,7.62
2018-03-28T20:18:23.240Z,7.61
2018-03-28T20:20:53.414Z,7.57
2018-03-28T20:23:25.093Z,7.57
2018-03-28T20:25:52.628Z,7.54
2018-03-28T20:28:20.174Z,7.54
2018-03-28T20:30:47.681Z,7.53
2018-03-28T20:33:15.234Z,7.51
2018-03-28T20:35:42.781Z,7.48
2018-03-28T20:38:12.885Z,7.49
2018-03-28T20:40:41.519Z,7.46
2018-03-28T20:43:09.112Z,7.45
2018-03-28T20:45:36.653Z,7.43
2018-03-28T20:48:04.177Z,7.41
2018-03-28T20:50:31.743Z,7.39
2018-03-28T20:53:01.030Z,7.38
2018-03-28T20:55:31.450Z,7.37
2018-03-28T20:58:01.391Z,7.34
2018-03-28T21:00:28.904Z,7.33
2018-03-28T21:02:56.449Z,7.30
2018-03-28T21:05:23.977Z,7.26
2018-03-28T21:07:51.610Z,7.24
2018-03-28T21:10:19.224Z,7.23
2018-03-28T21:12:49.395Z,7.19
2018-03-28T21:15:18.456Z,7.17
2018-03-28T21:17:45.968Z,7.15
2018-03-28T21:20:13.493Z,7.12
2018-03-28T21:22:41.059Z,7.10
2018-03-28T21:25:08.578Z,7.07
2018-03-28T21:27:37.497Z,7.04
2018-03-28T21:30:09.109Z,7.03
2018-03-28T21:32:38.025Z,7.00
2018-03-28T21:35:05.529Z,6.97
2018-03-28T21:37:33.054Z,6.95
2018-03-28T21:40:00.628Z,6.95
2018-03-28T21:42:28.189Z,6.94
2018-03-28T21:44:57.486Z,6.93
2018-03-28T21:47:25.933Z,6.91
2018-03-28T21:49:54.152Z,6.88
2018-03-28T21:52:22.710Z,6.85
2018-03-28T21:54:50.640Z,6.81
2018-03-28T21:57:18.144Z,6.78
2018-03-28T21:59:45.714Z,6.76
2018-03-28T22:02:17.735Z,6.74
2018-03-28T22:04:46.575Z,6.69
2018-03-28T22:07:14.136Z,6.67
2018-03-28T22:09:41.667Z,6.66
2018-03-28T22:12:09.873Z,6.66
2018-03-28T22:14:37.409Z,6.67
2018-03-28T22:17:04.977Z,6.68
2018-03-28T22:19:33.737Z,6.70
2018-03-28T22:22:04.647Z,6.72
2018-03-28T22:24:33.420Z,6.74
2018-03-28T22:27:01.012Z,6.75
2018-03-28T22:29:28.508Z,6.76
2018-03-28T22:31:56.016Z,6.77
2018-03-28T22:34:23.568Z,6.74
2018-03-28T22:36:52.788Z,6.72
2018-03-28T22:39:21.473Z,6.72
2018-03-28T22:45:02.462Z,6.66
2018-03-28T23:02:23.325Z,6.33
2018-03-28T23:04:50.896Z,6.30
2018-03-28T23:07:18.461Z,6.27
2018-03-28T23:09:57.488Z,6.25
2018-03-28T23:15:18.433Z,6.25
2018-03-28T23:20:48.245Z,6.22
2018-03-28T23:23:15.799Z,6.21
2018-03-28T23:25:44.150Z,6.19
2018-03-28T23:36:21.359Z,6.17
2018-03-28T23:38:48.911Z,6.17
2018-03-28T23:41:16.445Z,6.17
2018-03-28T23:43:44.636Z,6.17
2018-03-28T23:55:10.540Z,6.16
2018-03-28T23:57:38.071Z,6.17
